Time;durP1;ratioP1;P1;durP2;ratioP2;P2;SDS_P1;SDS_P2;PMS_P1;PMS_P2;Temp;Humidity;BMP_temperature;BMP_pressure;BME280_temperature;BME280_humidity;BME280_pressure;Samples;Min_cycle;Max_cycle;Signal;HPM_P1;HPM_P2
2022/11/04 00:01:37;;;;;;;762.53;714.30;;;11.20;32.00;;;;;;5017459;28;20454;-70
2022/11/04 00:04:02;;;;;;;781.53;730.83;;;11.20;32.00;;;;;;5016520;28;20430;-70
2022/11/04 00:06:28;;;;;;;725.90;679.17;;;11.10;31.90;;;;;;5017830;28;20485;-71
2022/11/04 00:08:55;;;;;;;472.17;441.63;;;11.10;31.90;;;;;;5019645;28;20185;-71
2022/11/04 00:14:07;;;;;;;436.37;408.40;;;11.10;31.90;;;;;;5021910;28;20449;-71
2022/11/04 00:19:18;;;;;;;724.77;679.53;;;11.00;31.80;;;;;;5018042;28;20417;-70
2022/11/04 00:30:03;;;;;;;549.63;513.37;;;11.00;32.40;;;;;;5019255;28;20434;-70
2022/11/04 00:35:15;;;;;;;748.83;701.40;;;11.00;33.00;;;;;;5019612;28;20407;-70
2022/11/04 00:37:42;;;;;;;784.73;735.67;;;10.90;32.80;;;;;;5015198;28;20792;-70
2022/11/04 00:40:10;;;;;;;664.77;622.57;;;10.80;33.80;;;;;;5017880;28;20187;-70
2022/11/04 00:42:35;;;;;;;733.57;687.03;;;10.90;33.80;;;;;;5017102;28;20552;-70
2022/11/04 00:45:01;;;;;;;749.70;699.53;;;10.90;31.80;;;;;;5014773;28;20423;-70
2022/11/04 00:47:27;;;;;;;234.10;217.40;;;10.80;33.30;;;;;;5016426;28;20768;-72
2022/11/04 00:49:52;;;;;;;774.37;724.70;;;10.80;32.90;;;;;;5019165;28;20172;-70
2022/11/04 00:52:18;;;;;;;653.70;611.30;;;10.80;32.50;;;;;;5017053;28;20191;-70
2022/11/04 00:54:44;;;;;;;779.37;731.37;;;10.80;31.60;;;;;;5018936;28;20407;-70
2022/11/04 00:57:13;;;;;;;585.60;548.37;;;10.80;31.70;;;;;;5019527;28;20685;-70
2022/11/04 00:59:39;;;;;;;533.53;500.67;;;10.80;31.60;;;;;;5020777;28;20182;-70
2022/11/04 01:02:09;;;;;;;657.23;615.17;;;10.80;32.30;;;;;;5017004;28;20444;-70
2022/11/04 01:04:35;;;;;;;528.00;494.03;;;10.70;32.10;;;;;;5019208;28;20420;-70
2022/11/04 01:07:01;;;;;;;522.43;490.80;;;10.80;30.70;;;;;;5016461;28;20598;-70
2022/11/04 01:09:27;;;;;;;651.27;608.37;;;10.90;31.20;;;;;;5016622;28;20433;-70
2022/11/04 01:11:53;;;;;;;521.73;488.37;;;11.00;31.00;;;;;;5018497;28;20434;-73
2022/11/04 01:14:18;;;;;;;513.40;480.13;;;10.90;30.70;;;;;;5018185;28;20486;-70
2022/11/04 01:16:45;;;;;;;134.40;123.00;;;10.90;29.60;;;;;;5018062;28;20176;-70
2022/11/04 01:19:11;;;;;;;637.43;599.43;;;10.90;29.60;;;;;;5017400;28;20230;-71
2022/11/04 01:21:37;;;;;;;429.30;402.20;;;10.90;29.90;;;;;;5016324;28;20485;-70
2022/11/04 01:24:03;;;;;;;345.77;322.23;;;11.00;29.90;;;;;;5015529;28;21108;-71
2022/11/04 01:26:29;;;;;;;619.33;579.10;;;10.90;29.50;;;;;;5015716;28;20212;-70
2022/11/04 01:28:56;;;;;;;657.60;617.97;;;11.00;28.90;;;;;;5014439;28;20423;-70
2022/11/04 01:31:24;;;;;;;419.13;390.77;;;10.90;29.20;;;;;;5018340;28;20601;-70
2022/11/04 01:33:51;;;;;;;293.43;272.70;;;10.90;28.20;;;;;;5015980;28;20415;-71
2022/11/04 01:36:17;;;;;;;429.03;401.47;;;10.90;28.90;;;;;;5013882;28;20511;-70
2022/11/04 01:38:43;;;;;;;463.50;432.13;;;10.90;28.90;;;;;;5017405;28;20494;-70
2022/11/04 01:41:18;;;;;;;490.20;458.33;;;11.00;28.80;;;;;;5013833;28;21000;-70
2022/11/04 01:43:59;;;;;;;449.10;419.40;;;10.90;28.70;;;;;;5014602;28;20418;-71
2022/11/04 01:46:48;;;;;;;550.30;515.40;;;10.90;30.00;;;;;;5013152;28;20512;-71
2022/11/04 01:49:30;;;;;;;427.47;400.43;;;10.80;29.90;;;;;;5003191;28;20514;-70
2022/11/04 01:52:09;;;;;;;525.43;488.93;;;10.80;29.90;;;;;;4997225;28;20439;-70
2022/11/04 01:54:37;;;;;;;594.47;557.67;;;10.70;29.30;;;;;;5012701;28;20427;-70
2022/11/04 01:57:06;;;;;;;430.97;403.60;;;10.50;29.90;;;;;;5016236;28;20435;-69
2022/11/04 01:59:35;;;;;;;392.63;367.13;;;10.40;30.90;;;;;;5018098;28;20433;-71
2022/11/04 02:02:02;;;;;;;511.33;480.03;;;10.40;31.20;;;;;;5017126;28;20464;-71
2022/11/04 02:04:29;;;;;;;313.73;291.83;;;10.30;31.20;;;;;;5019903;28;20418;-71
2022/11/04 02:06:58;;;;;;;563.97;527.03;;;10.30;31.20;;;;;;5022342;28;20560;-71
2022/11/04 02:09:25;;;;;;;573.60;536.60;;;10.20;31.10;;;;;;5021590;28;20410;-71
2022/11/04 02:12:51;;;;;;;373.93;351.10;;;10.10;31.20;;;;;;5022197;28;20441;-70
2022/11/04 02:14:48;;;;;;;451.90;422.47;;;10.00;32.50;;;;;;5016644;28;20436;-70
2022/11/04 02:17:16;;;;;;;586.57;552.70;;;10.10;31.80;;;;;;5021039;28;20418;-69
2022/11/04 02:19:51;;;;;;;479.27;448.43;;;10.10;32.40;;;;;;5020755;28;20985;-70
2022/11/04 02:22:32;;;;;;;403.47;376.97;;;10.00;31.90;;;;;;5018866;28;20443;-71
2022/11/04 02:25:30;;;;;;;548.23;510.67;;;10.10;32.10;;;;;;5018714;28;20499;-70
2022/11/04 02:28:14;;;;;;;494.37;465.60;;;10.10;31.10;;;;;;5022223;28;20418;-70
2022/11/04 02:31:12;;;;;;;468.93;439.23;;;10.10;32.40;;;;;;5017356;28;20434;-69
2022/11/04 02:33:52;;;;;;;410.90;385.13;;;10.00;33.10;;;;;;5002298;28;20986;-70
2022/11/04 02:36:41;;;;;;;279.20;259.70;;;9.90;34.90;;;;;;5016743;28;20421;-70
2022/11/04 02:39:17;;;;;;;736.33;689.27;;;10.00;33.80;;;;;;5020244;28;20429;-70
2022/11/04 02:41:56;;;;;;;191.83;176.53;;;10.00;34.30;;;;;;5016985;28;20456;-70
2022/11/04 02:44:38;;;;;;;537.57;501.87;;;10.00;34.70;;;;;;5018223;28;20967;-70
2022/11/04 02:47:07;;;;;;;598.50;562.03;;;10.00;34.30;;;;;;5020867;28;20460;-70
2022/11/04 02:49:51;;;;;;;538.03;504.43;;;9.90;36.00;;;;;;5021276;28;20415;-70
2022/11/04 02:52:40;;;;;;;414.70;389.97;;;9.90;35.80;;;;;;5022218;28;20434;-70
2022/11/04 02:55:12;;;;;;;495.87;465.00;;;9.90;35.80;;;;;;5020191;28;20513;-71
2022/11/04 02:57:40;;;;;;;460.07;430.97;;;10.00;34.10;;;;;;5021282;28;20417;-71
2022/11/04 03:00:08;;;;;;;400.97;375.37;;;9.80;35.40;;;;;;5025324;28;20429;-71
2022/11/04 03:02:41;;;;;;;696.70;652.40;;;9.70;36.20;;;;;;5022593;28;20442;-71
2022/11/04 03:05:10;;;;;;;641.60;600.23;;;9.80;36.70;;;;;;5021621;28;20418;-71
2022/11/04 03:07:39;;;;;;;335.70;312.53;;;9.90;36.00;;;;;;5023216;28;20426;-71
2022/11/04 03:10:13;;;;;;;689.43;644.67;;;9.90;35.90;;;;;;5021897;28;20495;-70
2022/11/04 03:12:51;;;;;;;153.27;139.47;;;9.90;36.10;;;;;;5020351;28;20498;-70
2022/11/04 03:15:23;;;;;;;514.80;482.43;;;10.00;34.40;;;;;;5021910;28;20409;-71
2022/11/04 03:18:00;;;;;;;653.43;614.23;;;9.90;34.90;;;;;;5021931;28;20414;-71
2022/11/04 03:20:27;;;;;;;445.23;416.47;;;9.90;35.50;;;;;;5021334;28;20402;-71
2022/11/04 03:22:58;;;;;;;443.20;413.40;;;9.80;35.30;;;;;;5020423;28;20406;-69
2022/11/04 03:25:28;;;;;;;565.23;527.40;;;9.80;36.00;;;;;;5020164;28;20837;-70
2022/11/04 03:28:17;;;;;;;164.67;151.17;;;9.70;35.40;;;;;;5021034;28;20485;-70
2022/11/04 03:30:46;;;;;;;611.60;574.57;;;9.70;35.50;;;;;;5020119;28;20493;-70
2022/11/04 03:33:29;;;;;;;538.47;507.03;;;9.70;35.40;;;;;;5020196;28;20415;-70
2022/11/04 03:35:55;;;;;;;444.27;417.73;;;9.70;35.00;;;;;;5020705;28;20445;-70
2022/11/04 03:38:22;;;;;;;577.70;543.13;;;9.60;34.30;;;;;;5020969;28;20418;-70
2022/11/04 03:40:48;;;;;;;247.17;228.03;;;9.60;34.20;;;;;;5034131;23;20466;-73
2022/11/04 03:43:34;;;;;;;528.33;493.87;;;9.60;34.50;;;;;;5013001;28;20981;-71
2022/11/04 03:46:00;;;;;;;458.17;428.93;;;9.60;34.50;;;;;;5008631;28;20466;-74
2022/11/04 03:48:25;;;;;;;269.40;250.33;;;9.60;33.70;;;;;;4994705;28;20438;-72
2022/11/04 03:50:51;;;;;;;445.27;414.83;;;9.50;33.50;;;;;;5012671;28;20191;-72
2022/11/04 03:53:23;;;;;;;483.97;453.30;;;9.50;34.20;;;;;;5013702;28;20175;-72
2022/11/04 03:56:16;;;;;;;571.27;535.43;;;9.50;33.20;;;;;;5014108;28;20182;-72
2022/11/04 03:59:09;;;;;;;560.83;527.13;;;9.40;33.40;;;;;;5006295;28;20449;-72
2022/11/04 04:01:55;;;;;;;135.37;123.50;;;9.40;33.50;;;;;;4994754;28;20459;-72
2022/11/04 04:04:36;;;;;;;275.23;256.70;;;9.30;34.00;;;;;;5001610;28;21126;-72
2022/11/04 04:07:11;;;;;;;761.50;712.93;;;9.40;33.50;;;;;;5015339;28;21046;-73
2022/11/04 04:09:51;;;;;;;322.60;301.23;;;9.40;33.60;;;;;;5013938;28;20416;-73
2022/11/04 04:12:30;;;;;;;664.67;621.23;;;9.40;32.30;;;;;;5013874;28;20433;-72
2022/11/04 04:15:03;;;;;;;693.20;651.43;;;9.30;32.30;;;;;;5013815;28;20413;-73
2022/11/04 04:17:41;;;;;;;477.57;447.57;;;9.40;31.80;;;;;;5013414;28;20414;-73
2022/11/04 04:20:14;;;;;;;512.43;478.77;;;9.30;32.40;;;;;;5015352;28;20405;-72
2022/11/04 04:22:44;;;;;;;350.70;328.50;;;9.20;33.00;;;;;;5013285;28;20482;-72
2022/11/04 04:27:59;;;;;;;550.17;516.40;;;9.20;33.20;;;;;;5013584;28;20933;-72
2022/11/04 04:30:25;;;;;;;645.10;603.60;;;9.20;33.40;;;;;;5013450;28;20401;-72
2022/11/04 04:33:07;;;;;;;591.33;554.90;;;9.20;34.10;;;;;;5012973;28;20432;-72
2022/11/04 04:35:43;;;;;;;661.23;620.93;;;9.20;33.90;;;;;;5014409;28;21009;-72
2022/11/04 04:46:59;;;;;;;515.63;486.90;;;9.20;32.30;;;;;;5013582;28;20976;-72
2022/11/04 04:49:33;;;;;;;689.67;648.20;;;9.10;32.60;;;;;;5016371;28;20429;-72
2022/11/04 04:52:00;;;;;;;686.73;645.83;;;9.10;32.80;;;;;;5015664;28;20805;-72
2022/11/04 04:54:26;;;;;;;295.50;276.37;;;9.10;33.10;;;;;;5013140;28;20972;-72
2022/11/04 04:56:52;;;;;;;548.00;513.00;;;9.10;33.50;;;;;;5013151;28;20575;-72
2022/11/04 04:59:17;;;;;;;663.47;622.80;;;9.00;33.20;;;;;;5013795;28;20911;-72
2022/11/04 05:01:43;;;;;;;457.70;429.20;;;9.00;32.50;;;;;;5014282;28;20737;-72
2022/11/04 05:04:09;;;;;;;193.10;177.77;;;8.90;32.30;;;;;;5013402;28;20190;-71
2022/11/04 05:06:34;;;;;;;719.70;676.00;;;8.90;33.50;;;;;;5015817;28;20217;-72
2022/11/04 05:09:00;;;;;;;689.77;648.50;;;8.90;33.60;;;;;;5012816;28;20190;-72
2022/11/04 05:11:25;;;;;;;322.30;299.97;;;9.00;32.70;;;;;;5012783;28;20197;-72
2022/11/04 05:13:51;;;;;;;609.67;571.73;;;8.90;33.00;;;;;;5013535;28;20548;-72
2022/11/04 05:16:16;;;;;;;689.97;648.97;;;8.90;32.90;;;;;;5013794;28;20229;-72
2022/11/04 05:18:42;;;;;;;619.77;582.40;;;8.90;33.10;;;;;;5014694;28;20648;-72
2022/11/04 05:21:11;;;;;;;513.37;482.60;;;8.80;32.80;;;;;;5014168;28;20196;-72
2022/11/04 05:23:36;;;;;;;292.83;273.63;;;8.80;33.00;;;;;;5011028;28;20183;-73
2022/11/04 05:26:02;;;;;;;707.53;664.97;;;8.80;33.80;;;;;;5012500;28;20955;-73
2022/11/04 05:28:28;;;;;;;584.70;550.13;;;8.80;33.90;;;;;;5015628;28;20216;-72
2022/11/04 05:30:54;;;;;;;557.83;524.13;;;8.80;33.70;;;;;;5012889;28;20441;-74
2022/11/04 05:33:20;;;;;;;713.20;669.30;;;8.80;33.80;;;;;;5012171;28;20185;-73
2022/11/04 05:35:45;;;;;;;520.90;489.80;;;8.70;33.70;;;;;;5011949;28;20426;-73
2022/11/04 05:38:11;;;;;;;559.93;527.93;;;8.70;34.00;;;;;;5010724;28;20248;-73
2022/11/04 05:40:37;;;;;;;446.53;419.77;;;8.70;33.70;;;;;;5007181;28;20663;-73
2022/11/04 05:43:02;;;;;;;487.67;457.30;;;8.70;34.20;;;;;;4995180;28;20457;-75
2022/11/04 05:45:28;;;;;;;286.07;266.70;;;8.70;34.70;;;;;;4993209;28;20544;-74
2022/11/04 05:47:58;;;;;;;434.80;408.23;;;8.70;34.20;;;;;;4996248;28;20195;-74
2022/11/04 05:50:23;;;;;;;479.40;449.60;;;8.70;34.50;;;;;;4994625;28;20505;-73
2022/11/04 05:52:49;;;;;;;659.70;620.27;;;8.70;34.40;;;;;;4993207;28;20519;-72
2022/11/04 05:55:14;;;;;;;398.20;373.27;;;8.70;35.00;;;;;;4996200;28;20180;-72
2022/11/04 05:57:40;;;;;;;474.30;449.23;;;8.70;35.10;;;;;;4995388;28;20189;-72
2022/11/04 06:00:06;;;;;;;529.77;498.50;;;8.60;34.90;;;;;;4992893;28;20265;-72
2022/11/04 06:02:32;;;;;;;568.10;534.20;;;8.60;35.70;;;;;;4990841;28;20268;-72
2022/11/04 06:04:57;;;;;;;527.60;493.70;;;8.60;35.90;;;;;;4993111;28;20414;-72
2022/11/04 06:07:23;;;;;;;470.97;440.30;;;8.60;36.00;;;;;;4993342;28;20243;-72
2022/11/04 06:09:48;;;;;;;498.43;467.13;;;8.50;36.20;;;;;;4995090;28;20528;-72
2022/11/04 06:12:14;;;;;;;727.53;683.03;;;8.50;36.60;;;;;;4992284;28;20278;-73
2022/11/04 06:14:41;;;;;;;313.93;293.93;;;8.50;35.90;;;;;;4992598;28;20232;-73
2022/11/04 06:17:10;;;;;;;440.83;413.03;;;8.40;36.60;;;;;;4992388;28;20446;-73
2022/11/04 06:19:36;;;;;;;309.03;288.83;;;8.40;36.30;;;;;;4994180;28;20913;-72
2022/11/04 06:22:02;;;;;;;342.23;320.40;;;8.40;36.40;;;;;;4992856;28;20447;-72
2022/11/04 06:24:28;;;;;;;418.07;393.70;;;8.40;36.70;;;;;;4991216;28;20179;-72
2022/11/04 06:26:54;;;;;;;334.77;312.90;;;8.40;37.20;;;;;;4993465;28;20792;-72
2022/11/04 06:29:19;;;;;;;268.13;249.83;;;8.30;37.50;;;;;;4992517;28;20185;-72
2022/11/04 06:31:45;;;;;;;579.57;544.17;;;8.30;37.90;;;;;;4993505;28;20201;-72
2022/11/04 06:34:10;;;;;;;332.67;311.00;;;8.30;37.50;;;;;;4992293;28;20177;-72
2022/11/04 06:36:36;;;;;;;280.27;261.80;;;8.20;37.90;;;;;;4992681;28;20181;-72
2022/11/04 06:39:05;;;;;;;418.63;392.87;;;8.20;37.50;;;;;;4991013;28;20182;-72
2022/11/04 06:41:33;;;;;;;605.57;568.90;;;8.20;37.60;;;;;;5004036;28;20221;-72
2022/11/04 06:43:59;;;;;;;558.77;527.07;;;8.10;37.10;;;;;;5015475;28;20424;-71
2022/11/04 06:46:36;;;;;;;521.73;490.23;;;8.10;37.30;;;;;;5012517;28;20460;-72
2022/11/04 06:49:03;;;;;;;204.20;189.50;;;8.20;37.50;;;;;;5012352;28;20188;-71
2022/11/04 06:51:30;;;;;;;352.53;329.60;;;8.20;37.90;;;;;;5013917;28;20436;-71
2022/11/04 06:53:55;;;;;;;516.23;484.23;;;8.20;37.80;;;;;;5014260;28;20505;-71
2022/11/04 06:56:21;;;;;;;260.57;242.43;;;8.20;37.20;;;;;;5015581;28;20441;-72
2022/11/04 06:58:50;;;;;;;635.87;597.03;;;8.20;37.60;;;;;;5013938;28;20180;-71
2022/11/04 07:01:17;;;;;;;383.53;360.93;;;8.30;37.10;;;;;;5013608;28;20357;-72
2022/11/04 07:03:43;;;;;;;403.33;378.10;;;8.30;37.30;;;;;;5018007;28;20486;-72
2022/11/04 07:06:10;;;;;;;343.83;321.83;;;8.40;36.80;;;;;;5013801;28;20469;-72
2022/11/04 07:08:35;;;;;;;473.57;444.93;;;8.40;36.60;;;;;;5015122;28;20481;-72
2022/11/04 07:11:02;;;;;;;469.67;441.30;;;8.40;35.20;;;;;;5015324;28;20453;-71
2022/11/04 07:13:28;;;;;;;407.20;381.83;;;8.40;34.40;;;;;;5013711;28;20181;-72
2022/11/04 07:15:54;;;;;;;418.67;394.53;;;8.50;33.70;;;;;;5013586;28;20958;-71
2022/11/04 07:18:19;;;;;;;383.27;359.43;;;8.50;34.00;;;;;;5014890;28;20372;-71
2022/11/04 07:20:45;;;;;;;528.23;492.90;;;8.50;33.60;;;;;;5014903;28;20181;-71
2022/11/04 07:23:11;;;;;;;471.93;442.87;;;8.50;33.70;;;;;;5013487;28;20189;-71
2022/11/04 07:25:36;;;;;;;485.60;457.10;;;8.50;33.40;;;;;;5014881;28;20462;-72
2022/11/04 07:28:02;;;;;;;574.47;540.47;;;8.60;33.60;;;;;;5013764;28;20270;-71
2022/11/04 07:30:28;;;;;;;581.00;542.90;;;8.60;33.40;;;;;;5015971;28;20723;-73
2022/11/04 07:32:53;;;;;;;715.07;668.27;;;8.70;32.80;;;;;;5015298;28;20266;-71
2022/11/04 07:35:19;;;;;;;509.70;476.63;;;8.70;30.80;;;;;;5014502;28;20170;-72
2022/11/04 07:37:45;;;;;;;377.43;353.50;;;8.80;30.90;;;;;;5013110;28;20232;-72
2022/11/04 07:40:10;;;;;;;553.60;519.27;;;8.80;30.90;;;;;;5014271;28;20184;-73
2022/11/04 07:42:36;;;;;;;489.30;456.57;;;8.90;31.00;;;;;;5012566;28;20242;-72
2022/11/04 07:45:02;;;;;;;421.83;395.47;;;9.10;29.90;;;;;;5014327;28;20261;-72
2022/11/04 07:47:31;;;;;;;206.73;191.07;;;9.10;29.00;;;;;;5014549;28;20200;-74
2022/11/04 07:49:57;;;;;;;591.20;555.20;;;9.30;28.30;;;;;;5013209;28;20429;-73
2022/11/04 07:52:23;;;;;;;553.87;518.43;;;9.40;27.10;;;;;;5013218;28;20802;-75
2022/11/04 07:54:49;;;;;;;351.97;329.87;;;9.50;27.10;;;;;;5013095;28;20187;-74
2022/11/04 07:57:14;;;;;;;200.87;185.10;;;9.50;27.70;;;;;;5014091;28;20418;-72
2022/11/04 07:59:40;;;;;;;382.27;358.30;;;9.60;27.80;;;;;;5015225;28;20180;-72
2022/11/04 08:02:06;;;;;;;202.97;187.17;;;9.80;27.30;;;;;;5013882;28;20560;-73
2022/11/04 08:04:34;;;;;;;409.20;383.47;;;9.90;26.90;;;;;;5012784;28;20615;-72
2022/11/04 08:07:00;;;;;;;391.47;366.07;;;10.10;25.20;;;;;;5009904;28;21041;-73
2022/11/04 08:09:26;;;;;;;286.93;266.83;;;10.20;25.00;;;;;;5011850;28;20434;-71
2022/11/04 08:11:51;;;;;;;606.40;569.13;;;10.30;24.10;;;;;;5013358;28;20777;-71
2022/11/04 08:14:17;;;;;;;279.17;258.83;;;10.50;23.80;;;;;;5014040;28;20179;-71
2022/11/04 08:16:43;;;;;;;371.20;346.33;;;10.70;23.60;;;;;;5010448;28;20185;-71
2022/11/04 08:19:08;;;;;;;435.43;405.57;;;10.80;23.10;;;;;;4996587;28;20550;-73
2022/11/04 08:21:34;;;;;;;434.23;403.07;;;10.90;21.80;;;;;;4997156;28;20211;-72
2022/11/04 08:24:02;;;;;;;541.13;505.27;;;10.90;21.50;;;;;;4997533;28;20415;-71
2022/11/04 08:26:28;;;;;;;311.90;289.37;;;11.00;21.70;;;;;;4995443;28;20294;-72
2022/11/04 08:28:54;;;;;;;514.13;477.70;;;10.90;21.20;;;;;;5000711;28;20526;-72
2022/11/04 08:31:23;;;;;;;477.10;444.30;;;11.00;20.80;;;;;;5015820;28;20572;-72
2022/11/04 08:33:49;;;;;;;485.20;451.73;;;11.10;20.20;;;;;;5014455;28;20202;-71
2022/11/04 08:36:25;;;;;;;464.30;428.03;;;11.20;19.80;;;;;;5013697;28;20415;-71
2022/11/04 08:38:51;;;;;;;543.67;506.70;;;11.20;18.10;;;;;;5013479;28;20410;-71
2022/11/04 08:41:20;;;;;;;320.70;295.97;;;11.40;19.30;;;;;;5002071;28;20521;-71
2022/11/04 08:43:46;;;;;;;376.50;347.80;;;11.60;18.20;;;;;;4998379;28;20814;-72
2022/11/04 08:46:12;;;;;;;300.33;276.53;;;11.60;17.80;;;;;;5011616;28;20465;-72
2022/11/04 08:48:39;;;;;;;131.83;116.37;;;11.70;17.80;;;;;;5011579;28;20407;-71
2022/11/04 08:51:09;;;;;;;735.63;684.20;;;11.60;17.40;;;;;;5010481;28;20907;-71
2022/11/04 08:53:35;;;;;;;644.77;600.33;;;11.70;17.50;;;;;;5012931;28;20424;-71
2022/11/04 08:56:21;;;;;;;668.57;620.37;;;11.60;17.10;;;;;;5011459;28;20920;-72
2022/11/04 08:58:47;;;;;;;229.30;210.67;;;11.60;17.70;;;;;;5011519;28;20547;-72
2022/11/04 09:01:15;;;;;;;348.37;323.17;;;11.60;17.30;;;;;;5010323;28;20546;-72
2022/11/04 09:03:41;;;;;;;466.67;432.90;;;11.60;17.90;;;;;;4991667;28;20487;-72
2022/11/04 09:06:12;;;;;;;405.97;377.73;;;11.60;18.20;;;;;;4996492;28;20463;-72
2022/11/04 09:08:38;;;;;;;439.77;409.33;;;11.60;18.30;;;;;;4993140;28;20427;-72
2022/11/04 09:11:10;;;;;;;368.60;341.93;;;11.50;18.40;;;;;;4995389;28;20811;-72
2022/11/04 09:13:37;;;;;;;380.23;352.23;;;11.50;18.50;;;;;;4993316;28;20424;-72
2022/11/04 09:16:03;;;;;;;458.07;424.37;;;11.50;18.30;;;;;;4998357;28;20498;-72
2022/11/04 09:18:29;;;;;;;449.70;416.53;;;11.40;19.10;;;;;;5012502;28;20957;-72
2022/11/04 09:20:59;;;;;;;452.57;420.20;;;11.40;18.10;;;;;;5012444;28;20531;-73
2022/11/04 09:23:25;;;;;;;480.23;445.10;;;11.30;18.20;;;;;;5010747;28;20560;-73
2022/11/04 09:25:50;;;;;;;442.80;409.50;;;11.10;18.30;;;;;;4991342;28;20554;-73
2022/11/04 09:28:16;;;;;;;329.27;305.10;;;11.20;19.20;;;;;;4992898;28;20183;-73
2022/11/04 09:30:42;;;;;;;386.83;359.83;;;11.40;18.10;;;;;;4992580;28;20184;-73
2022/11/04 09:33:07;;;;;;;413.57;383.00;;;11.50;18.70;;;;;;4992477;28;20219;-73
2022/11/04 09:35:33;;;;;;;446.23;414.47;;;11.60;17.80;;;;;;5008614;28;20183;-73
2022/11/04 09:38:00;;;;;;;655.03;607.33;;;11.80;16.90;;;;;;5012376;28;20180;-73
2022/11/04 09:40:25;;;;;;;232.10;212.50;;;11.90;16.90;;;;;;5010907;28;20287;-72
2022/11/04 09:43:09;;;;;;;429.60;397.83;;;12.00;16.40;;;;;;5012512;28;20508;-71
2022/11/04 09:45:39;;;;;;;506.60;470.37;;;12.20;16.30;;;;;;4994579;28;20184;-71
2022/11/04 09:48:12;;;;;;;576.33;536.40;;;12.40;14.50;;;;;;4992500;28;20426;-71
2022/11/04 09:50:51;;;;;;;536.97;500.77;;;12.30;14.90;;;;;;4992484;28;20427;-72
2022/11/04 09:53:22;;;;;;;77.90;49.80;;;12.40;14.70;;;;;;4993180;28;20505;-71
2022/11/04 09:55:57;;;;;;;425.40;394.97;;;12.50;14.50;;;;;;5011936;28;20407;-72
2022/11/04 09:58:23;;;;;;;365.33;338.77;;;12.60;14.10;;;;;;5004341;28;20423;-71
2022/11/04 10:00:59;;;;;;;487.20;453.97;;;12.80;14.00;;;;;;4992320;28;20425;-71
2022/11/04 10:03:52;;;;;;;483.87;450.90;;;12.90;13.70;;;;;;4993940;28;20466;-71
2022/11/04 10:06:27;;;;;;;504.50;469.40;;;12.90;13.30;;;;;;5001427;28;20469;-71
2022/11/04 10:09:04;;;;;;;203.63;186.47;;;12.70;12.90;;;;;;4991092;28;20424;-71
2022/11/04 10:11:44;;;;;;;550.97;512.07;;;12.60;14.20;;;;;;4992342;28;20515;-70
2022/11/04 10:14:37;;;;;;;356.43;329.67;;;12.70;13.60;;;;;;4992210;28;20779;-71
2022/11/04 10:17:31;;;;;;;270.90;250.70;;;12.70;13.80;;;;;;5007814;28;20434;-70
2022/11/04 10:20:23;;;;;;;248.03;228.80;;;12.70;13.10;;;;;;5011931;28;20446;-71
2022/11/04 10:22:55;;;;;;;290.13;267.67;;;12.70;13.80;;;;;;5011516;28;20436;-71
2022/11/04 10:25:27;;;;;;;224.00;205.70;;;12.70;12.80;;;;;;5014524;28;20477;-71
2022/11/04 10:27:53;;;;;;;397.33;367.17;;;12.70;13.10;;;;;;5010185;28;20783;-71
2022/11/04 10:30:21;;;;;;;489.93;456.13;;;12.90;13.20;;;;;;4997144;28;20423;-71
2022/11/04 10:33:10;;;;;;;457.33;423.20;;;12.90;12.70;;;;;;4995566;28;20189;-71
2022/11/04 10:35:43;;;;;;;421.83;392.70;;;13.20;11.90;;;;;;4997000;28;20423;-72
2022/11/04 10:38:16;;;;;;;255.43;235.43;;;13.30;11.50;;;;;;4995778;28;20400;-72
2022/11/04 10:40:46;;;;;;;487.13;453.17;;;13.50;12.10;;;;;;4995670;28;20408;-72
2022/11/04 10:43:17;;;;;;;122.43;110.70;;;13.40;12.00;;;;;;4995535;28;20575;-72
2022/11/04 10:46:04;;;;;;;316.37;293.30;;;13.50;12.10;;;;;;5004805;28;20506;-71
2022/11/04 10:48:54;;;;;;;662.07;617.10;;;13.60;12.10;;;;;;5015222;28;20513;-71
2022/11/04 10:51:21;;;;;;;378.13;351.07;;;14.00;11.60;;;;;;5014946;28;20461;-71
2022/11/04 10:53:55;;;;;;;587.37;546.70;;;14.40;10.40;;;;;;5014838;28;20402;-71
2022/11/04 10:56:56;;;;;;;592.97;549.70;;;14.10;10.00;;;;;;5000738;28;20461;-71
2022/11/04 10:59:22;;;;;;;423.87;390.93;;;14.00;10.30;;;;;;4996738;28;20521;-71
2022/11/04 11:01:53;;;;;;;646.47;599.63;;;14.40;10.10;;;;;;5013242;28;21046;-71
2022/11/04 11:04:24;;;;;;;424.00;392.93;;;14.50;10.60;;;;;;5014814;28;20465;-70
2022/11/04 11:06:51;;;;;;;794.90;737.60;;;14.40;9.10;;;;;;5010695;28;20458;-69
2022/11/04 11:09:27;;;;;;;628.90;583.30;;;14.50;9.70;;;;;;4995183;28;20424;-70
2022/11/04 11:11:53;;;;;;;629.63;584.50;;;14.50;9.50;;;;;;5002577;28;20974;-70
2022/11/04 11:14:28;;;;;;;713.50;662.67;;;14.50;8.30;;;;;;5014785;28;20835;-71
2022/11/04 11:17:40;;;;;;;453.53;421.57;;;14.60;8.90;;;;;;5014839;28;20422;-70
2022/11/04 11:20:23;;;;;;;464.10;430.23;;;14.40;8.20;;;;;;4998972;28;20515;-70
2022/11/04 11:22:50;;;;;;;573.30;532.87;;;14.60;8.40;;;;;;5014288;28;20500;-69
2022/11/04 11:25:22;;;;;;;436.40;403.63;;;14.60;9.80;;;;;;5003946;28;20453;-69
2022/11/04 11:27:54;;;;;;;380.53;353.20;;;14.70;9.60;;;;;;4994574;28;20451;-70
2022/11/04 11:30:35;;;;;;;414.93;384.57;;;15.00;8.30;;;;;;4994850;28;20426;-71
2022/11/04 11:33:06;;;;;;;515.97;479.33;;;15.10;8.10;;;;;;4994905;28;20404;-71
2022/11/04 11:35:40;;;;;;;599.97;557.17;;;15.30;8.00;;;;;;4994490;28;20423;-71
2022/11/04 11:38:20;;;;;;;442.07;410.43;;;14.60;7.30;;;;;;5010812;28;20411;-70
2022/11/04 11:40:49;;;;;;;433.63;402.97;;;14.60;8.50;;;;;;5013978;28;20486;-70
2022/11/04 11:43:27;;;;;;;597.13;556.97;;;14.80;8.00;;;;;;5014290;28;20792;-71
2022/11/04 11:45:56;;;;;;;254.33;235.17;;;14.60;7.80;;;;;;5014416;28;20817;-70
2022/11/04 11:48:41;;;;;;;433.47;403.40;;;14.70;7.00;;;;;;5012942;28;20422;-70
2022/11/04 11:51:12;;;;;;;465.53;433.17;;;14.80;7.70;;;;;;5014178;28;20489;-70
2022/11/04 11:53:44;;;;;;;723.27;672.50;;;14.60;6.80;;;;;;5013826;28;20425;-70
2022/11/04 11:56:33;;;;;;;346.00;320.13;;;14.60;8.00;;;;;;5014103;28;20506;-70
2022/11/04 11:59:14;;;;;;;472.73;431.60;;;14.30;7.50;;;;;;5013982;28;20468;-70
2022/11/04 12:01:49;;;;;;;434.23;404.00;;;14.50;6.90;;;;;;5002828;28;20442;-70
2022/11/04 12:04:15;;;;;;;324.70;301.07;;;13.90;7.90;;;;;;5014114;28;20438;-69
2022/11/04 12:07:05;;;;;;;425.97;396.20;;;13.60;7.90;;;;;;5013678;28;20545;-69
2022/11/04 12:09:56;;;;;;;442.97;413.83;;;13.50;8.50;;;;;;5013823;28;20419;-69
2022/11/04 12:12:48;;;;;;;470.87;438.00;;;13.30;9.50;;;;;;5007515;28;20451;-71
2022/11/04 12:15:45;;;;;;;418.43;388.93;;;13.30;8.40;;;;;;4994191;28;20446;-71
2022/11/04 12:18:32;;;;;;;404.80;375.57;;;13.70;8.90;;;;;;4993177;28;20430;-72
2022/11/04 12:21:05;;;;;;;623.67;580.03;;;13.90;8.10;;;;;;4999372;28;20458;-73
2022/11/04 12:23:45;;;;;;;765.60;712.17;;;14.10;8.00;;;;;;5013299;28;20422;-74
2022/11/04 12:26:19;;;;;;;593.37;551.13;;;14.20;7.60;;;;;;4997350;28;20521;-74
2022/11/04 12:29:10;;;;;;;584.67;541.80;;;14.50;8.30;;;;;;4993966;28;20455;-74
2022/11/04 12:31:44;;;;;;;741.13;685.83;;;14.60;7.10;;;;;;5010380;28;20474;-75
2022/11/04 12:34:38;;;;;;;729.00;678.70;;;15.10;7.60;;;;;;5013164;28;20469;-74
2022/11/04 12:37:07;;;;;;;430.67;397.77;;;15.30;6.30;;;;;;5013405;28;20454;-74
2022/11/04 12:39:36;;;;;;;357.07;330.60;;;15.20;6.10;;;;;;5011703;28;20473;-74
2022/11/04 12:42:26;;;;;;;592.20;551.43;;;14.90;6.20;;;;;;5012514;28;20860;-72
2022/11/04 12:45:10;;;;;;;489.13;453.37;;;14.80;6.70;;;;;;5013194;28;20419;-73
2022/11/04 12:47:45;;;;;;;534.87;496.63;;;14.90;6.20;;;;;;4995492;28;20491;-71
2022/11/04 12:50:29;;;;;;;490.97;455.47;;;15.10;5.90;;;;;;4994637;28;20420;-71
2022/11/04 12:53:19;;;;;;;209.03;191.80;;;15.20;4.80;;;;;;4994068;28;20432;-71
2022/11/04 12:55:48;;;;;;;478.70;445.50;;;15.50;5.40;;;;;;4993478;28;20478;-71
2022/11/04 12:58:34;;;;;;;129.40;118.03;;;15.50;5.00;;;;;;4998667;28;20422;-70
2022/11/04 13:01:05;;;;;;;519.93;483.40;;;15.80;4.80;;;;;;5003013;28;20505;-71
2022/11/04 13:03:37;;;;;;;574.87;533.77;;;15.90;4.80;;;;;;5008595;28;20473;-71